METAR

METAR

SAPL62 EPRA 191300
METAR EPRA 191300Z 31015KT CAVOK 25/18 Q1016=

TAF

TAF

FCPL62 EPRA 191100
TAF EPRA 191130Z 1912/1921 29012KT 9999 BKN033
TEMPO 1912/1918 5000 RA BR SCT007 BKN020
PROB30 1918/1921 3000 RA BR BKN005 BKN015=

Witamy na stronie Radom Meteo

zawsze aktualna prognoza dla pilotów 

W zakresie osłony meteorologicznej realizujemy:

  • wykonywanie pomiarów i obserwacji meteorologicznych;
  • przygotowane prognoz meteorologicznych;
  • opracowywanie ostrzeżeń meteorologicznych;
  • informowanie o warunkach meteorologicznych;
  • dystrybucję informacji meteorologicznych;
  • opracowywanie danych klimatycznych.